Time;durP1;ratioP1;P1;durP2;ratioP2;P2;SDS_P1;SDS_P2;PMS_P1;PMS_P2;Temp;Humidity;BMP_temperature;BMP_pressure;BME280_temperature;BME280_humidity;BME280_pressure;Samples;Min_cycle;Max_cycle;Signal;HPM_P1;HPM_P2
2023/02/25 00:01:23;;;;;;;5.80;4.57;;;6.80;99.90;;;;;;5057705;28;20728;-42
2023/02/25 00:03:53;;;;;;;6.33;5.07;;;6.80;99.90;;;;;;5058164;28;20689;-41
2023/02/25 00:06:20;;;;;;;5.77;4.40;;;6.80;99.90;;;;;;5056232;28;20443;-43
2023/02/25 00:08:46;;;;;;;7.00;5.23;;;6.80;99.90;;;;;;5056928;28;20454;-42
2023/02/25 00:11:14;;;;;;;4.90;4.40;;;6.70;99.90;;;;;;5055568;28;20451;-42
2023/02/25 00:13:41;;;;;;;6.00;5.00;;;6.70;1.00;;;;;;5055160;28;20464;-42
2023/02/25 00:16:08;;;;;;;5.43;4.77;;;6.70;1.00;;;;;;5038240;28;20432;-45
2023/02/25 00:18:34;;;;;;;5.50;4.60;;;6.70;1.00;;;;;;5041431;28;20416;-45
2023/02/25 00:21:04;;;;;;;4.90;4.40;;;6.70;1.00;;;;;;5060574;28;20431;-42
2023/02/25 00:23:30;;;;;;;6.70;5.17;;;6.70;1.00;;;;;;5059199;28;20438;-44
2023/02/25 00:26:00;;;;;;;6.97;5.43;;;6.70;1.00;;;;;;5059604;28;20818;-42
2023/02/25 00:28:26;;;;;;;6.10;5.50;;;6.60;1.00;;;;;;5059809;28;20235;-43
2023/02/25 00:30:52;;;;;;;6.87;5.90;;;6.60;1.00;;;;;;5060102;28;20632;-42
2023/02/25 00:33:17;;;;;;;6.50;5.20;;;6.60;1.00;;;;;;5060601;28;20464;-44
2023/02/25 00:35:43;;;;;;;7.03;6.33;;;6.60;1.00;;;;;;5060736;28;20195;-42
2023/02/25 00:38:09;;;;;;;6.77;6.07;;;6.60;1.00;;;;;;5060652;28;20189;-41
2023/02/25 00:40:38;;;;;;;7.33;5.33;;;6.60;9.40;;;;;;5059660;28;20420;-45
2023/02/25 00:43:04;;;;;;;6.77;6.07;;;6.60;27.20;;;;;;5060093;28;20381;-40
2023/02/25 00:45:30;;;;;;;6.00;5.40;;;6.60;21.80;;;;;;5059952;28;20501;-40
2023/02/25 00:47:55;;;;;;;5.90;5.30;;;6.60;18.70;;;;;;5058702;28;20188;-41
2023/02/25 00:50:21;;;;;;;6.33;5.73;;;6.60;35.80;;;;;;5059173;28;20527;-41
2023/02/25 00:52:47;;;;;;;8.63;5.90;;;6.60;49.70;;;;;;5059218;28;20530;-40
2023/02/25 00:55:12;;;;;;;5.73;5.20;;;6.60;52.60;;;;;;5060801;28;20284;-41
2023/02/25 00:57:38;;;;;;;5.80;5.30;;;6.60;99.90;;;;;;5059676;28;20461;-41
2023/02/25 01:00:17;;;;;;;6.27;5.50;;;6.60;99.90;;;;;;5057941;28;20452;-43
2023/02/25 01:02:44;;;;;;;6.63;5.93;;;6.60;99.90;;;;;;5058723;28;20454;-41
2023/02/25 01:05:11;;;;;;;6.30;5.20;;;6.60;96.70;;;;;;5057693;28;20781;-41
2023/02/25 01:07:37;;;;;;;6.60;5.70;;;6.60;46.00;;;;;;5057468;28;20424;-44
2023/02/25 01:10:03;;;;;;;7.43;5.90;;;6.60;63.00;;;;;;5058856;28;20508;-41
2023/02/25 01:12:29;;;;;;;7.13;6.30;;;6.60;65.70;;;;;;5058836;28;20578;-43
2023/02/25 01:14:56;;;;;;;6.20;5.60;;;6.60;73.20;;;;;;5059566;28;20552;-41
2023/02/25 01:17:21;;;;;;;8.30;5.87;;;6.60;73.10;;;;;;5059599;28;20174;-42
2023/02/25 01:19:47;;;;;;;7.53;6.83;;;6.70;68.10;;;;;;5058767;28;20416;-41
2023/02/25 01:22:12;;;;;;;8.70;6.63;;;6.60;92.70;;;;;;5058244;28;20186;-43
2023/02/25 01:24:38;;;;;;;7.73;6.97;;;6.60;99.90;;;;;;5059337;28;20486;-41
2023/02/25 01:27:04;;;;;;;6.53;5.93;;;6.60;99.90;;;;;;5058180;28;20247;-40
2023/02/25 01:29:38;;;;;;;7.73;6.57;;;6.60;99.90;;;;;;5059222;28;20177;-42
2023/02/25 01:32:04;;;;;;;6.90;5.73;;;6.60;99.90;;;;;;5057953;28;20482;-42
2023/02/25 01:34:30;;;;;;;7.10;6.40;;;6.60;94.20;;;;;;5059151;28;20533;-43
2023/02/25 01:36:56;;;;;;;7.33;6.63;;;6.60;55.60;;;;;;5059165;28;20675;-41
2023/02/25 01:39:22;;;;;;;7.70;6.23;;;6.60;29.70;;;;;;5059329;28;20412;-41
2023/02/25 01:41:49;;;;;;;11.73;7.17;;;6.60;1.00;;;;;;5058989;28;20504;-42
2023/02/25 01:44:18;;;;;;;7.00;6.30;;;6.60;1.00;;;;;;5058848;28;20756;-41
2023/02/25 01:46:53;;;;;;;8.97;6.13;;;6.50;1.00;;;;;;5060023;28;20435;-42
2023/02/25 01:49:28;;;;;;;9.43;7.10;;;6.50;1.00;;;;;;5059985;28;20412;-43
2023/02/25 01:52:01;;;;;;;9.97;7.07;;;6.50;1.00;;;;;;5059080;28;20443;-42
2023/02/25 01:54:27;;;;;;;7.73;6.93;;;6.50;1.00;;;;;;5057568;28;20460;-42
2023/02/25 01:56:55;;;;;;;6.77;5.70;;;6.50;1.00;;;;;;5057096;28;20431;-41
2023/02/25 01:59:24;;;;;;;8.20;6.03;;;6.50;1.00;;;;;;5059043;28;20720;-41
2023/02/25 02:01:50;;;;;;;7.20;6.50;;;6.50;1.00;;;;;;5058049;28;20425;-42
2023/02/25 02:04:17;;;;;;;8.17;6.80;;;6.50;1.00;;;;;;5058295;28;20801;-43
2023/02/25 02:06:44;;;;;;;9.17;6.10;;;6.50;1.00;;;;;;5058895;28;20729;-42
2023/02/25 02:09:20;;;;;;;6.60;5.90;;;6.50;1.00;;;;;;5059247;28;20518;-41
2023/02/25 02:11:46;;;;;;;7.00;6.23;;;6.50;99.90;;;;;;5057431;28;20505;-41
2023/02/25 02:14:19;;;;;;;9.90;7.40;;;6.50;1.00;;;;;;5058044;28;20471;-40
2023/02/25 02:17:08;;;;;;;8.07;5.80;;;6.50;1.00;;;;;;5058419;28;20182;-41
2023/02/25 02:19:52;;;;;;;11.33;6.87;;;6.50;99.90;;;;;;5057722;28;20415;-42
2023/02/25 02:22:23;;;;;;;7.50;6.20;;;6.40;99.90;;;;;;5057316;28;20413;-42
2023/02/25 02:25:11;;;;;;;8.17;6.80;;;6.50;99.90;;;;;;5055320;28;20409;-42
2023/02/25 02:27:55;;;;;;;8.27;6.50;;;6.40;99.90;;;;;;5055460;28;20464;-42
2023/02/25 02:30:27;;;;;;;6.43;5.73;;;6.40;99.90;;;;;;5055975;28;20493;-42
2023/02/25 02:33:04;;;;;;;9.50;6.27;;;6.40;99.90;;;;;;5056050;28;20555;-41
2023/02/25 02:36:15;;;;;;;7.63;6.10;;;6.40;99.90;;;;;;5054629;28;20436;-43
2023/02/25 02:39:32;;;;;;;7.60;5.87;;;6.30;39.90;;;;;;5054602;28;20511;-44
2023/02/25 02:42:12;;;;;;;9.60;6.37;;;6.30;1.00;;;;;;5032304;28;20506;-44
2023/02/25 02:44:42;;;;;;;9.17;6.00;;;6.30;1.00;;;;;;5056976;28;20704;-42
2023/02/25 02:47:35;;;;;;;6.93;5.77;;;6.20;1.00;;;;;;5056522;28;20710;-42
2023/02/25 02:50:08;;;;;;;7.20;5.60;;;6.20;1.00;;;;;;5056136;28;20416;-44
2023/02/25 02:52:38;;;;;;;7.93;6.47;;;6.20;1.00;;;;;;5055363;28;20469;-42
2023/02/25 02:55:27;;;;;;;7.77;6.57;;;6.10;1.00;;;;;;5056888;28;20488;-44
2023/02/25 02:58:27;;;;;;;6.67;4.80;;;6.10;1.00;;;;;;5055471;28;20421;-43
2023/02/25 03:01:02;;;;;;;7.60;6.30;;;6.10;1.00;;;;;;5042998;28;20735;-42
2023/02/25 03:03:35;;;;;;;8.03;5.57;;;6.10;1.00;;;;;;5054284;28;20462;-42
2023/02/25 03:06:04;;;;;;;9.00;6.53;;;6.10;1.00;;;;;;5052929;28;20743;-42
2023/02/25 03:08:32;;;;;;;10.17;6.93;;;6.10;1.00;;;;;;5055492;28;20431;-41
2023/02/25 03:10:57;;;;;;;6.80;5.80;;;6.00;1.00;;;;;;5053194;28;20463;-42
2023/02/25 03:13:23;;;;;;;7.73;5.93;;;6.00;1.00;;;;;;5054449;28;20456;-41
2023/02/25 03:15:51;;;;;;;9.20;6.27;;;6.00;1.00;;;;;;5054621;28;20516;-42
2023/02/25 03:18:39;;;;;;;9.50;6.87;;;6.00;1.00;;;;;;5054939;28;20276;-42
2023/02/25 03:21:14;;;;;;;9.83;6.40;;;5.90;1.00;;;;;;5056762;28;20545;-42
2023/02/25 03:23:41;;;;;;;8.93;6.57;;;5.90;1.00;;;;;;5055904;28;20432;-41
2023/02/25 03:26:29;;;;;;;6.77;5.30;;;5.90;1.00;;;;;;5056302;28;20494;-43
2023/02/25 03:28:55;;;;;;;7.00;5.67;;;5.90;1.00;;;;;;5057273;28;20432;-43
2023/02/25 03:31:28;;;;;;;8.63;6.13;;;5.90;1.00;;;;;;5056241;28;20420;-42
2023/02/25 03:34:01;;;;;;;9.27;5.27;;;5.80;1.00;;;;;;5055701;28;20535;-42
2023/02/25 03:36:27;;;;;;;6.40;5.57;;;5.80;1.00;;;;;;5055412;28;20709;-43
2023/02/25 03:39:02;;;;;;;8.00;5.43;;;5.80;1.00;;;;;;5056076;28;20512;-41
2023/02/25 03:41:35;;;;;;;7.93;4.67;;;5.80;1.00;;;;;;5055504;28;20423;-42
2023/02/25 03:44:03;;;;;;;6.33;5.60;;;5.80;1.00;;;;;;5055969;28;20432;-43
2023/02/25 03:46:30;;;;;;;6.63;5.00;;;5.80;1.00;;;;;;5057180;28;20439;-43
2023/02/25 03:48:56;;;;;;;6.80;5.27;;;5.80;1.00;;;;;;5056929;28;20416;-44
2023/02/25 03:51:27;;;;;;;6.90;5.27;;;5.80;1.00;;;;;;5055353;28;20424;-42
2023/02/25 03:53:53;;;;;;;4.80;4.30;;;5.80;1.00;;;;;;5054905;28;20456;-42
2023/02/25 03:56:19;;;;;;;5.90;4.70;;;5.80;1.00;;;;;;5056532;28;20747;-44
2023/02/25 03:58:44;;;;;;;6.27;4.60;;;5.80;1.00;;;;;;5056673;28;20409;-42
2023/02/25 04:01:17;;;;;;;7.27;4.77;;;5.80;1.00;;;;;;5057596;28;20425;-43
2023/02/25 04:03:43;;;;;;;5.20;4.17;;;5.80;1.00;;;;;;5056566;28;20243;-42
2023/02/25 04:06:11;;;;;;;7.00;4.53;;;5.80;99.90;;;;;;5057407;28;20427;-42
2023/02/25 04:08:36;;;;;;;6.93;4.13;;;5.80;99.90;;;;;;5058006;28;20826;-41
2023/02/25 04:11:02;;;;;;;8.23;4.80;;;5.80;99.90;;;;;;5056379;28;20440;-42
2023/02/25 04:13:28;;;;;;;5.93;4.13;;;5.80;99.90;;;;;;5056488;28;20209;-43
2023/02/25 04:15:53;;;;;;;8.63;4.43;;;5.80;99.90;;;;;;5055595;28;20547;-42
2023/02/25 04:18:19;;;;;;;4.80;3.90;;;5.90;99.90;;;;;;5056513;28;20548;-42
2023/02/25 04:20:44;;;;;;;7.50;4.53;;;5.90;99.90;;;;;;5056780;28;20181;-42
2023/02/25 04:23:15;;;;;;;5.27;4.77;;;5.90;99.90;;;;;;5055949;28;20483;-44
2023/02/25 04:25:42;;;;;;;6.90;5.07;;;5.90;99.90;;;;;;5056456;28;20174;-42
2023/02/25 04:28:08;;;;;;;8.50;5.10;;;5.90;99.90;;;;;;5054702;28;20507;-43
2023/02/25 04:30:34;;;;;;;7.40;4.70;;;5.90;99.90;;;;;;5056757;28;20849;-41
2023/02/25 04:33:00;;;;;;;8.03;6.00;;;5.90;33.10;;;;;;5057022;28;20459;-43
2023/02/25 04:35:26;;;;;;;6.07;4.57;;;5.80;1.00;;;;;;5057699;28;20443;-42
2023/02/25 04:37:51;;;;;;;5.20;4.10;;;5.80;1.00;;;;;;5057169;28;20190;-42
2023/02/25 04:40:19;;;;;;;6.30;4.10;;;5.80;99.90;;;;;;5057376;28;20185;-43
2023/02/25 04:42:45;;;;;;;6.80;3.00;;;5.80;1.00;;;;;;5059206;28;20193;-42
2023/02/25 04:45:11;;;;;;;3.43;2.47;;;5.80;17.80;;;;;;5060662;28;20455;-42
2023/02/25 04:47:37;;;;;;;2.83;1.90;;;5.70;1.00;;;;;;5061224;28;20201;-42
2023/02/25 04:50:05;;;;;;;6.20;1.97;;;5.70;99.90;;;;;;5060931;28;20421;-42
2023/02/25 04:52:31;;;;;;;5.63;2.20;;;5.60;31.10;;;;;;5059793;28;20428;-42
2023/02/25 04:54:56;;;;;;;3.27;1.80;;;5.60;1.00;;;;;;5060610;28;20485;-43
2023/02/25 04:57:22;;;;;;;3.10;1.50;;;5.50;1.00;;;;;;5060831;28;20265;-43
2023/02/25 04:59:48;;;;;;;4.97;1.63;;;5.50;1.00;;;;;;5059849;28;20521;-44
2023/02/25 05:02:13;;;;;;;4.80;1.30;;;5.40;1.00;;;;;;5060044;28;20185;-43
2023/02/25 05:04:39;;;;;;;3.60;1.50;;;5.40;1.00;;;;;;5060127;28;20453;-42
2023/02/25 05:07:05;;;;;;;5.23;2.10;;;5.40;99.90;;;;;;5059994;28;20189;-41
2023/02/25 05:09:31;;;;;;;4.60;1.77;;;5.40;99.90;;;;;;5060004;28;20182;-43
2023/02/25 05:11:57;;;;;;;1.93;1.47;;;5.30;99.90;;;;;;5060322;28;20818;-42
2023/02/25 05:14:23;;;;;;;4.47;1.70;;;5.30;99.90;;;;;;5060951;28;20456;-42
2023/02/25 05:16:50;;;;;;;4.33;1.50;;;5.30;99.90;;;;;;5060936;28;20212;-42
2023/02/25 05:19:21;;;;;;;3.40;1.80;;;5.30;99.90;;;;;;5059108;28;20416;-40
2023/02/25 05:21:50;;;;;;;3.97;1.53;;;5.30;99.90;;;;;;5060117;28;20170;-41
2023/02/25 05:24:16;;;;;;;3.20;1.80;;;5.20;99.90;;;;;;5060740;28;20427;-40
2023/02/25 05:26:42;;;;;;;4.13;1.60;;;5.20;99.90;;;;;;5059272;28;20550;-42
2023/02/25 05:29:08;;;;;;;3.33;1.20;;;5.20;1.00;;;;;;5059384;28;20412;-42
2023/02/25 05:31:34;;;;;;;2.87;1.43;;;5.20;99.90;;;;;;5059087;28;20444;-40
2023/02/25 05:33:59;;;;;;;4.43;1.80;;;5.20;99.90;;;;;;5057398;28;20734;-40
2023/02/25 05:36:25;;;;;;;2.93;1.77;;;5.20;99.90;;;;;;5056684;28;20178;-41
2023/02/25 05:38:55;;;;;;;2.40;1.53;;;5.20;1.00;;;;;;5057668;28;20188;-41
2023/02/25 05:41:21;;;;;;;3.67;1.80;;;5.20;1.00;;;;;;5056614;28;20188;-40
2023/02/25 05:43:46;;;;;;;2.60;1.43;;;5.20;1.00;;;;;;5057314;28;20614;-41
2023/02/25 05:46:12;;;;;;;5.47;1.80;;;5.20;1.00;;;;;;5058344;28;20509;-43
2023/02/25 05:48:41;;;;;;;5.47;1.97;;;5.20;1.00;;;;;;5058208;28;20217;-43
2023/02/25 05:51:15;;;;;;;8.60;2.07;;;5.20;1.00;;;;;;5036669;28;20763;-41
2023/02/25 05:53:43;;;;;;;3.30;2.00;;;5.20;1.00;;;;;;5038322;28;20491;-41
2023/02/25 05:56:12;;;;;;;2.60;1.80;;;5.20;1.00;;;;;;5038681;28;20436;-41
2023/02/25 05:58:38;;;;;;;5.07;2.47;;;5.20;1.00;;;;;;5038785;28;20861;-43
2023/02/25 06:01:15;;;;;;;3.60;2.50;;;5.20;1.00;;;;;;5037925;28;20451;-44
2023/02/25 06:03:42;;;;;;;4.30;2.40;;;5.20;1.00;;;;;;5038890;28;20181;-45
2023/02/25 06:06:09;;;;;;;3.97;1.83;;;5.20;1.00;;;;;;5039251;28;20428;-43
2023/02/25 06:08:35;;;;;;;3.67;2.20;;;5.20;1.00;;;;;;5038678;28;20881;-42
2023/02/25 06:11:01;;;;;;;2.50;1.80;;;5.20;1.00;;;;;;5037079;28;20429;-44
2023/02/25 06:13:27;;;;;;;3.70;2.50;;;5.20;1.00;;;;;;5037813;28;20211;-42
2023/02/25 06:15:53;;;;;;;4.60;2.20;;;5.20;1.00;;;;;;5038035;28;20174;-43
2023/02/25 06:18:20;;;;;;;4.93;1.97;;;5.20;1.00;;;;;;5036777;28;20814;-44
2023/02/25 06:20:46;;;;;;;4.40;2.07;;;5.20;1.00;;;;;;5034081;28;20429;-42
2023/02/25 06:23:12;;;;;;;3.37;1.50;;;5.20;1.00;;;;;;5034614;28;20421;-42
2023/02/25 06:25:37;;;;;;;3.03;1.77;;;5.20;1.00;;;;;;5034521;28;20182;-42
2023/02/25 06:28:03;;;;;;;4.20;2.17;;;5.20;1.00;;;;;;5035100;28;20477;-42
2023/02/25 06:30:29;;;;;;;3.60;1.80;;;5.20;1.00;;;;;;5034174;28;20178;-43
2023/02/25 06:32:56;;;;;;;3.73;1.77;;;5.20;1.00;;;;;;5035476;28;20484;-41
2023/02/25 06:35:24;;;;;;;4.00;2.67;;;5.20;1.00;;;;;;5036767;28;20855;-42
2023/02/25 06:37:54;;;;;;;4.07;1.80;;;5.20;99.90;;;;;;5037444;28;20484;-43
2023/02/25 06:40:20;;;;;;;3.97;2.23;;;5.20;99.90;;;;;;5037361;28;20668;-41
2023/02/25 06:42:45;;;;;;;3.77;2.13;;;5.30;99.90;;;;;;5035739;28;20420;-41
2023/02/25 06:45:11;;;;;;;2.87;1.80;;;5.30;99.90;;;;;;5034655;28;20689;-42
2023/02/25 06:47:37;;;;;;;3.13;1.80;;;5.30;99.90;;;;;;5035750;28;20183;-42
2023/02/25 06:50:02;;;;;;;7.33;2.07;;;5.40;99.90;;;;;;5035637;28;20439;-42
2023/02/25 06:52:28;;;;;;;3.60;1.50;;;5.40;99.90;;;;;;5035002;28;20177;-43
2023/02/25 06:54:54;;;;;;;3.20;1.70;;;5.40;99.90;;;;;;5035807;28;20406;-43
2023/02/25 06:57:19;;;;;;;4.40;2.00;;;5.50;99.90;;;;;;5037790;28;20171;-41
2023/02/25 06:59:46;;;;;;;4.60;1.90;;;5.50;99.90;;;;;;5037720;28;20553;-43
2023/02/25 07:02:12;;;;;;;4.43;1.30;;;5.60;99.90;;;;;;5034940;28;20174;-43
2023/02/25 07:04:38;;;;;;;4.30;2.13;;;5.70;62.10;;;;;;5033757;28;20417;-42
2023/02/25 07:07:04;;;;;;;1.80;1.13;;;5.80;1.00;;;;;;5034608;28;20429;-44
2023/02/25 07:09:29;;;;;;;6.03;1.90;;;5.90;1.00;;;;;;5035406;28;20711;-42
2023/02/25 07:11:55;;;;;;;6.20;1.53;;;6.00;1.00;;;;;;5034248;28;20435;-42
2023/02/25 07:14:20;;;;;;;5.37;1.50;;;6.20;1.00;;;;;;5032800;28;20212;-42
2023/02/25 07:16:46;;;;;;;3.57;1.67;;;6.40;99.90;;;;;;5032585;28;20341;-42
2023/02/25 07:19:13;;;;;;;2.43;1.43;;;6.70;99.90;;;;;;5032971;28;20236;-42
2023/02/25 07:21:39;;;;;;;3.80;1.63;;;7.00;99.90;;;;;;5034284;28;20171;-42
2023/02/25 07:24:05;;;;;;;5.33;1.73;;;7.20;99.90;;;;;;5033704;28;20416;-42
2023/02/25 07:26:31;;;;;;;4.00;1.30;;;7.50;99.90;;;;;;5034137;28;20317;-42
2023/02/25 07:28:58;;;;;;;2.40;1.53;;;7.80;68.80;;;;;;5034232;28;20503;-41
2023/02/25 07:31:25;;;;;;;2.07;1.43;;;8.00;25.90;;;;;;5032552;28;20194;-41
2023/02/25 07:33:50;;;;;;;4.30;1.63;;;8.30;1.00;;;;;;5033453;28;20469;-44
2023/02/25 07:36:16;;;;;;;3.00;1.43;;;8.60;1.00;;;;;;5035110;28;20878;-43
2023/02/25 07:38:42;;;;;;;2.10;1.43;;;8.90;1.00;;;;;;5036307;28;20416;-41
2023/02/25 07:41:16;;;;;;;4.03;1.50;;;9.20;1.00;;;;;;5036618;28;20205;-44
2023/02/25 07:43:43;;;;;;;3.87;1.37;;;9.50;1.00;;;;;;5036631;28;20508;-43
2023/02/25 07:46:08;;;;;;;3.23;1.23;;;9.60;1.00;;;;;;5036956;28;20858;-42
2023/02/25 07:48:34;;;;;;;3.10;1.40;;;9.80;1.00;;;;;;5037305;28;20426;-43
2023/02/25 07:51:17;;;;;;;2.10;1.10;;;10.00;1.00;;;;;;5036626;28;20186;-44
2023/02/25 07:53:45;;;;;;;2.80;1.27;;;10.30;1.00;;;;;;5037052;28;20209;-43
2023/02/25 07:56:11;;;;;;;4.10;1.17;;;10.50;1.00;;;;;;5035700;28;20553;-41
2023/02/25 07:58:37;;;;;;;2.30;0.93;;;10.70;1.00;;;;;;5035813;28;20460;-43
2023/02/25 08:01:27;;;;;;;3.13;1.07;;;10.90;1.00;;;;;;5034040;28;20416;-45
2023/02/25 08:03:55;;;;;;;2.23;1.37;;;11.10;1.00;;;;;;5036042;28;20440;-43
2023/02/25 08:06:21;;;;;;;1.70;0.90;;;11.30;1.00;;;;;;5034074;28;20433;-43
2023/02/25 08:08:50;;;;;;;2.17;0.80;;;11.60;1.00;;;;;;5017029;28;20847;-43
2023/02/25 08:11:18;;;;;;;2.60;1.10;;;11.80;1.00;;;;;;5034876;28;20428;-42
2023/02/25 08:13:44;;;;;;;1.90;1.00;;;12.10;1.00;;;;;;5032797;28;20823;-44
2023/02/25 08:16:12;;;;;;;2.77;1.37;;;12.40;1.00;;;;;;5031756;28;20570;-43
2023/02/25 08:18:39;;;;;;;3.07;1.40;;;12.70;1.00;;;;;;5033722;28;20475;-43
2023/02/25 08:21:05;;;;;;;2.80;1.00;;;12.90;1.00;;;;;;5037711;28;20420;-43
2023/02/25 08:23:31;;;;;;;3.20;1.73;;;13.30;1.00;;;;;;5036253;28;20425;-44
2023/02/25 08:25:58;;;;;;;3.97;1.50;;;13.60;1.00;;;;;;5036932;28;20187;-43
2023/02/25 08:28:26;;;;;;;2.90;1.47;;;13.90;1.00;;;;;;5036398;28;20317;-45
2023/02/25 08:30:52;;;;;;;3.00;1.80;;;13.90;1.00;;;;;;5038154;28;20661;-42
2023/02/25 08:33:19;;;;;;;2.90;1.20;;;14.10;1.00;;;;;;5038464;28;20464;-41
2023/02/25 08:35:44;;;;;;;2.80;1.40;;;14.30;1.00;;;;;;5038855;28;20918;-41
2023/02/25 08:38:11;;;;;;;2.80;1.37;;;14.40;1.00;;;;;;5036945;28;20487;-41
2023/02/25 08:40:38;;;;;;;2.33;1.50;;;14.30;1.00;;;;;;5035216;28;20178;-43
2023/02/25 08:43:04;;;;;;;2.43;1.30;;;13.90;1.00;;;;;;5035783;28;20692;-41
2023/02/25 08:45:30;;;;;;;2.93;1.70;;;13.60;1.00;;;;;;5038035;28;20532;-42
2023/02/25 08:47:55;;;;;;;3.60;2.03;;;13.20;1.00;;;;;;5036695;28;20492;-42
2023/02/25 08:50:22;;;;;;;3.87;1.50;;;12.70;1.00;;;;;;5035810;28;20539;-41
2023/02/25 08:52:49;;;;;;;2.60;1.57;;;12.20;1.00;;;;;;5036303;28;20177;-41
2023/02/25 08:55:15;;;;;;;3.20;1.33;;;11.70;1.00;;;;;;5037147;28;20432;-42
2023/02/25 08:57:41;;;;;;;4.07;1.67;;;11.40;1.00;;;;;;5037829;28;20413;-41
2023/02/25 09:00:09;;;;;;;1.97;1.50;;;11.10;1.00;;;;;;5036028;28;20507;-42
2023/02/25 09:02:35;;;;;;;3.33;1.70;;;10.90;1.00;;;;;;5019317;28;20734;-43
2023/02/25 09:05:01;;;;;;;3.20;1.33;;;10.80;1.00;;;;;;5036058;28;20718;-46
2023/02/25 09:07:26;;;;;;;2.70;1.70;;;10.70;1.00;;;;;;5037252;28;20425;-43
2023/02/25 09:09:52;;;;;;;1.83;1.57;;;10.70;1.00;;;;;;5037750;28;20650;-42
2023/02/25 09:12:18;;;;;;;3.27;1.40;;;10.70;1.00;;;;;;5037550;28;20208;-41
2023/02/25 09:14:43;;;;;;;2.67;1.70;;;10.80;1.00;;;;;;5037243;28;20304;-42
2023/02/25 09:17:09;;;;;;;3.53;1.70;;;10.80;1.00;;;;;;5036500;28;20185;-42
2023/02/25 09:19:37;;;;;;;4.53;1.77;;;11.00;1.00;;;;;;5037894;28;20243;-41
2023/02/25 09:22:04;;;;;;;2.77;2.20;;;11.20;1.00;;;;;;5037186;28;20244;-43
2023/02/25 09:24:32;;;;;;;2.60;1.70;;;11.40;1.00;;;;;;5036573;28;20774;-42
2023/02/25 09:27:06;;;;;;;3.40;2.00;;;11.70;1.00;;;;;;5036456;28;20539;-42
2023/02/25 09:29:34;;;;;;;4.00;1.80;;;12.10;1.00;;;;;;5034132;28;20865;-43
2023/02/25 09:31:59;;;;;;;6.53;2.80;;;12.90;1.00;;;;;;5033636;28;20502;-41
2023/02/25 09:34:25;;;;;;;3.97;1.70;;;13.70;1.00;;;;;;5033916;28;20477;-42
2023/02/25 09:36:51;;;;;;;6.80;1.90;;;14.80;1.00;;;;;;5034390;28;20541;-42
2023/02/25 09:39:17;;;;;;;2.80;1.97;;;16.00;1.00;;;;;;5035073;28;20524;-43
2023/02/25 09:41:52;;;;;;;5.33;2.70;;;17.10;1.00;;;;;;5035668;28;20189;-44
2023/02/25 09:44:27;;;;;;;2.60;1.80;;;18.20;1.00;;;;;;5035598;28;20503;-42
2023/02/25 09:47:00;;;;;;;2.50;1.43;;;19.30;1.00;;;;;;5036559;28;20695;-41
2023/02/25 09:49:35;;;;;;;3.23;1.70;;;20.30;1.00;;;;;;5034999;28;20642;-44
2023/02/25 09:52:25;;;;;;;1.87;1.10;;;20.50;1.00;;;;;;5036282;28;20654;-44
2023/02/25 09:55:19;;;;;;;2.30;1.50;;;19.90;1.00;;;;;;5016229;28;20488;-44
2023/02/25 09:58:08;;;;;;;3.83;1.43;;;19.10;1.00;;;;;;5026039;28;20437;-45
2023/02/25 10:00:57;;;;;;;5.10;2.63;;;17.90;1.00;;;;;;5003840;28;20421;-43
2023/02/25 10:03:47;;;;;;;3.50;1.83;;;16.90;1.00;;;;;;5034930;28;20417;-44
2023/02/25 10:06:35;;;;;;;2.10;1.67;;;16.20;1.00;;;;;;5034863;28;20433;-44
2023/02/25 10:09:36;;;;;;;4.03;1.70;;;15.50;1.00;;;;;;5035090;28;20437;-42
2023/02/25 10:12:29;;;;;;;5.60;1.60;;;16.10;1.00;;;;;;5027759;28;20431;-53
2023/02/25 10:15:13;;;;;;;4.13;1.50;;;16.80;1.00;;;;;;5033220;28;20740;-45
2023/02/25 10:17:45;;;;;;;2.13;1.20;;;17.20;1.00;;;;;;5031765;28;20850;-44
2023/02/25 10:20:38;;;;;;;3.47;1.47;;;17.40;1.00;;;;;;5034176;28;20430;-47
2023/02/25 10:23:24;;;;;;;2.40;1.20;;;17.40;1.00;;;;;;5032573;28;20518;-46
2023/02/25 10:26:06;;;;;;;3.67;1.47;;;17.40;1.00;;;;;;5033577;28;20536;-43
2023/02/25 10:28:33;;;;;;;2.57;0.93;;;17.40;1.00;;;;;;5031467;28;20611;-44
2023/02/25 10:31:06;;;;;;;2.03;0.80;;;17.10;1.00;;;;;;5032971;28;20662;-44
2023/02/25 10:33:39;;;;;;;2.70;0.93;;;16.90;1.00;;;;;;5035048;28;20534;-45
2023/02/25 10:36:27;;;;;;;2.67;1.23;;;16.60;1.00;;;;;;5032624;28;20719;-45
2023/02/25 10:38:53;;;;;;;3.17;1.00;;;16.50;1.00;;;;;;5015109;28;20433;-44
2023/02/25 10:41:25;;;;;;;2.90;1.00;;;16.60;1.00;;;;;;5032718;28;20465;-44
2023/02/25 10:43:51;;;;;;;2.73;1.00;;;16.60;1.00;;;;;;5032875;28;20424;-48
2023/02/25 10:46:32;;;;;;;3.30;1.30;;;16.60;1.00;;;;;;5033739;28;20460;-44
2023/02/25 10:49:24;;;;;;;5.43;1.30;;;16.80;1.00;;;;;;5033611;28;20440;-47
2023/02/25 10:52:16;;;;;;;3.83;1.60;;;17.10;1.00;;;;;;5049354;28;20720;-44
2023/02/25 10:54:46;;;;;;;1.70;1.07;;;17.80;1.00;;;;;;5030417;28;20708;-44
2023/02/25 10:57:27;;;;;;;1.60;1.00;;;18.70;1.00;;;;;;5029059;28;20433;-44
2023/02/25 11:00:05;;;;;;;3.53;1.40;;;19.80;1.00;;;;;;5029998;28;20831;-44
2023/02/25 11:02:35;;;;;;;2.13;1.30;;;20.90;1.00;;;;;;5031142;28;20420;-48
2023/02/25 11:05:01;;;;;;;2.50;1.10;;;21.70;1.00;;;;;;5032755;28;20849;-48
2023/02/25 11:07:34;;;;;;;4.70;1.00;;;22.30;1.00;;;;;;5030551;28;20432;-46
2023/02/25 11:10:14;;;;;;;2.03;1.60;;;22.80;1.00;;;;;;5033053;28;20170;-47
2023/02/25 11:12:42;;;;;;;2.63;1.13;;;23.00;1.00;;;;;;5030587;28;20421;-45
2023/02/25 11:15:29;;;;;;;2.20;1.00;;;22.70;1.00;;;;;;5030293;28;20814;-45
2023/02/25 11:18:03;;;;;;;2.07;1.20;;;22.30;1.00;;;;;;5031757;28;20421;-45
2023/02/25 11:20:31;;;;;;;3.37;2.03;;;21.80;1.00;;;;;;5030286;28;20414;-43
2023/02/25 11:22:58;;;;;;;3.13;1.57;;;21.20;1.00;;;;;;5030069;28;20723;-44
2023/02/25 11:25:44;;;;;;;2.50;1.70;;;20.40;1.00;;;;;;5015517;28;20460;-50
2023/02/25 11:28:48;;;;;;;3.77;1.80;;;19.50;1.00;;;;;;5032935;28;21510;-43
2023/02/25 11:31:19;;;;;;;2.53;1.30;;;18.60;1.00;;;;;;5014083;28;20432;-43
2023/02/25 11:34:02;;;;;;;3.57;1.23;;;17.90;1.00;;;;;;5032212;28;20468;-42
2023/02/25 11:36:31;;;;;;;2.90;1.40;;;17.40;1.00;;;;;;5031212;28;20557;-42
2023/02/25 11:39:15;;;;;;;2.23;1.30;;;17.10;1.00;;;;;;5029987;28;20825;-43
2023/02/25 11:41:43;;;;;;;3.40;1.30;;;17.00;1.00;;;;;;5031057;28;20494;-44
2023/02/25 11:44:42;;;;;;;3.17;1.83;;;16.70;1.00;;;;;;5032625;28;20417;-45
2023/02/25 11:47:13;;;;;;;3.03;1.20;;;16.40;1.00;;;;;;5032172;28;20443;-43
2023/02/25 11:49:52;;;;;;;3.63;1.33;;;16.40;1.00;;;;;;5033849;28;20825;-46
2023/02/25 11:52:30;;;;;;;2.50;1.27;;;16.50;1.00;;;;;;5036132;28;20766;-45
2023/02/25 11:55:25;;;;;;;2.80;1.20;;;16.50;1.00;;;;;;5038895;28;20467;-44
2023/02/25 11:58:02;;;;;;;2.33;1.10;;;16.50;1.00;;;;;;5038795;28;20708;-43
2023/02/25 12:00:34;;;;;;;1.87;1.00;;;16.40;1.00;;;;;;5038070;28;20409;-43
2023/02/25 12:03:19;;;;;;;1.70;1.23;;;16.10;1.00;;;;;;5038951;28;20421;-45
2023/02/25 12:06:05;;;;;;;2.70;1.10;;;15.70;1.00;;;;;;5037496;28;20405;-42
2023/02/25 12:08:38;;;;;;;2.83;1.23;;;15.30;1.00;;;;;;5036715;28;20447;-45
2023/02/25 12:11:07;;;;;;;2.90;1.60;;;15.00;1.00;;;;;;5036514;28;20824;-43
2023/02/25 12:13:47;;;;;;;2.50;1.30;;;14.80;1.00;;;;;;5036965;28;20468;-43
2023/02/25 12:16:22;;;;;;;2.80;1.27;;;14.70;1.00;;;;;;5019411;28;20416;-43
2023/02/25 12:18:59;;;;;;;1.33;0.90;;;14.50;1.00;;;;;;5037377;28;20515;-42
2023/02/25 12:21:58;;;;;;;2.90;1.30;;;14.30;1.00;;;;;;5037148;28;20932;-42
2023/02/25 12:24:49;;;;;;;3.90;1.40;;;14.00;99.90;;;;;;5035179;28;20518;-42
2023/02/25 12:27:54;;;;;;;2.70;1.37;;;13.70;99.90;;;;;;5036174;28;20565;-45
2023/02/25 12:30:44;;;;;;;2.30;1.33;;;13.60;99.90;;;;;;5015617;28;20846;-42
2023/02/25 12:33:35;;;;;;;2.60;1.37;;;13.40;99.90;;;;;;5037025;28;20550;-42
2023/02/25 12:36:41;;;;;;;3.37;1.80;;;13.10;99.90;;;;;;5036413;28;20429;-42
2023/02/25 12:39:25;;;;;;;2.90;1.50;;;12.80;99.90;;;;;;5052744;28;20401;-43
2023/02/25 12:42:14;;;;;;;1.83;1.20;;;12.70;99.90;;;;;;5034708;28;20501;-42
2023/02/25 12:44:51;;;;;;;2.60;1.43;;;12.60;99.90;;;;;;5007474;28;20637;-42
2023/02/25 12:47:25;;;;;;;2.57;1.67;;;12.60;99.90;;;;;;5037515;28;20520;-42
2023/02/25 12:50:19;;;;;;;4.10;2.03;;;12.60;99.90;;;;;;5036306;28;20715;-43
2023/02/25 12:53:15;;;;;;;3.60;1.77;;;12.60;99.90;;;;;;5035518;28;20413;-44
2023/02/25 12:55:41;;;;;;;2.80;2.03;;;12.60;99.90;;;;;;5035880;28;20409;-43
2023/02/25 12:58:34;;;;;;;3.40;1.70;;;12.40;99.90;;;;;;5035948;28;20847;-43
2023/02/25 13:01:31;;;;;;;3.20;1.37;;;12.30;99.90;;;;;;5033324;28;20178;-43
2023/02/25 13:03:57;;;;;;;1.50;1.00;;;12.10;99.90;;;;;;5034293;28;20622;-44
2023/02/25 13:06:44;;;;;;;3.97;1.60;;;11.80;99.90;;;;;;5035500;28;20471;-44
2023/02/25 13:09:28;;;;;;;1.70;1.13;;;11.60;99.90;;;;;;5035191;28;20433;-45
2023/02/25 13:12:03;;;;;;;3.73;1.43;;;11.40;99.90;;;;;;5035524;28;20448;-46
2023/02/25 13:14:43;;;;;;;3.30;1.50;;;11.30;99.90;;;;;;5037204;28;20456;-44
2023/02/25 13:17:12;;;;;;;4.10;1.70;;;11.10;99.90;;;;;;5036070;28;20711;-42
2023/02/25 13:19:55;;;;;;;3.87;2.50;;;10.90;99.90;;;;;;5035801;28;20414;-42
2023/02/25 13:22:39;;;;;;;3.03;1.70;;;10.70;99.90;;;;;;5035308;28;20440;-45
2023/02/25 13:25:22;;;;;;;3.70;2.00;;;10.50;99.90;;;;;;5034659;28;20536;-42